Steinbach, Canada
Current Conditions -  °F | °C
As of 8:00 AM on Thursday 25 Dec 2014 (Local Time) from CYWG Reporting Station
Broken Clouds Broken Clouds  
Wind Chill: 11°   Ceiling: 900
Heat Index: 25°   Visibility: 15mi
Dew Point: 21°   Wind: 17mph
Humidity: 86%   Direction: 310°NW
Pressure: 29.61"   Gusts: NA
Location:  49.52°N, 96.68°W
Report Text: CYWG 251400Z 31015KT 15SM BKN009 BKN023 M04/M06 A2961 RMK SC5SC2 SLP040
Loading
Personal Weather Stations






























Interactive Weather Map New forecast layout! Learn more

10-Day Weather Forecast

Advertisements
Track Severe Weather on mobile